Time;durP1;ratioP1;P1;durP2;ratioP2;P2;SDS_P1;SDS_P2;PMS_P1;PMS_P2;Temp;Humidity;BMP_temperature;BMP_pressure;BME280_temperature;BME280_humidity;BME280_pressure;Samples;Min_cycle;Max_cycle;Signal;HPM_P1;HPM_P2
2023/10/07 00:01:41;;;;;;;;;;;20.50;70.60;;;;;;5020465;28;1898;-65
2023/10/07 00:04:09;;;;;;;;;;;20.50;70.60;;;;;;5020572;28;945;-65
2023/10/07 00:06:37;;;;;;;;;;;20.50;70.60;;;;;;5023112;28;1229;-65
2023/10/07 00:09:10;;;;;;;;;;;20.50;70.70;;;;;;5017986;28;1613;-65
2023/10/07 00:11:35;;;;;;;;;;;20.50;70.70;;;;;;5004219;28;1581;-65
2023/10/07 00:14:02;;;;;;;;;;;20.50;70.70;;;;;;5017552;28;1159;-65
2023/10/07 00:16:28;;;;;;;;;;;20.50;70.70;;;;;;5019080;28;1318;-65
2023/10/07 00:18:54;;;;;;;;;;;20.50;70.70;;;;;;5021123;28;1368;-65
2023/10/07 00:21:44;;;;;;;;;;;20.50;70.70;;;;;;5018880;28;1959;-65
2023/10/07 00:24:16;;;;;;;;;;;20.50;70.70;;;;;;5005540;28;1091;-65
2023/10/07 00:26:42;;;;;;;;;;;20.50;70.70;;;;;;5019285;28;1377;-66
2023/10/07 00:29:12;;;;;;;;;;;20.50;70.70;;;;;;5020507;28;1350;-65
2023/10/07 00:31:40;;;;;;;;;;;20.50;70.70;;;;;;5020339;28;1581;-65
2023/10/07 00:34:13;;;;;;;;;;;20.50;70.70;;;;;;4989314;28;1336;-65
2023/10/07 00:39:07;;;;;;;;;;;20.50;70.70;;;;;;5017863;28;1282;-65
2023/10/07 00:41:39;;;;;;;;;;;20.50;70.70;;;;;;5002655;28;1971;-65
2023/10/07 00:44:29;;;;;;;;;;;20.50;70.80;;;;;;5018154;28;1345;-65
2023/10/07 00:49:29;;;;;;;;;;;20.50;70.80;;;;;;5001662;28;1821;-65
2023/10/07 00:51:54;;;;;;;;;;;20.50;70.80;;;;;;4998521;28;1141;-65
2023/10/07 00:54:37;;;;;;;;;;;20.50;70.80;;;;;;5016557;28;1359;-65
2023/10/07 00:59:35;;;;;;;;;;;20.50;70.80;;;;;;5021095;28;1965;-65
2023/10/07 01:02:05;;;;;;;;;;;20.50;70.80;;;;;;4998509;28;1627;-65
2023/10/07 01:04:40;;;;;;;;;;;20.50;70.80;;;;;;5020564;28;1459;-65
2023/10/07 01:07:13;;;;;;;;;;;20.50;70.80;;;;;;5016309;28;1313;-65
2023/10/07 01:09:39;;;;;;;;;;;20.50;70.80;;;;;;5018714;28;1360;-65
2023/10/07 01:12:08;;;;;;;;;;;20.50;70.80;;;;;;5019116;28;900;-65
2023/10/07 01:14:35;;;;;;;;;;;20.50;70.80;;;;;;5019948;28;1244;-65
2023/10/07 01:17:03;;;;;;;;;;;20.50;70.80;;;;;;5003291;28;1438;-65
2023/10/07 01:19:30;;;;;;;;;;;20.50;70.80;;;;;;5020592;28;1357;-66
2023/10/07 01:22:01;;;;;;;;;;;20.50;70.80;;;;;;5002368;28;1167;-65
2023/10/07 01:24:34;;;;;;;;;;;20.50;70.80;;;;;;5021421;28;1174;-65
2023/10/07 01:27:05;;;;;;;;;;;20.50;70.90;;;;;;5022312;28;1610;-65
2023/10/07 01:29:32;;;;;;;;;;;20.50;70.90;;;;;;5008325;28;1367;-65
2023/10/07 01:32:04;;;;;;;;;;;20.50;70.80;;;;;;5026995;28;1380;-65
2023/10/07 01:34:35;;;;;;;;;;;20.50;70.80;;;;;;5024631;28;1096;-65
2023/10/07 01:37:02;;;;;;;;;;;20.50;70.90;;;;;;5004180;28;1182;-66
2023/10/07 01:39:28;;;;;;;;;;;20.50;70.90;;;;;;5024774;28;1281;-65
2023/10/07 01:41:53;;;;;;;;;;;20.50;70.90;;;;;;5002552;28;1899;-65
2023/10/07 01:44:24;;;;;;;;;;;20.50;70.90;;;;;;5022610;28;904;-65
2023/10/07 01:46:55;;;;;;;;;;;20.50;70.90;;;;;;5026005;28;1438;-65
2023/10/07 01:49:22;;;;;;;;;;;20.40;70.80;;;;;;5021505;28;1348;-65
2023/10/07 01:51:51;;;;;;;;;;;20.50;70.90;;;;;;5019394;28;1310;-65
2023/10/07 01:54:19;;;;;;;;;;;20.50;71.70;;;;;;5022477;28;1257;-65
2023/10/07 01:56:47;;;;;;;;;;;20.50;70.90;;;;;;5023124;28;1252;-65
2023/10/07 02:01:43;;;;;;;;;;;20.50;70.90;;;;;;5020321;28;1914;-65
2023/10/07 02:04:24;;;;;;;;;;;20.50;70.90;;;;;;5018888;28;1181;-65
2023/10/07 02:06:54;;;;;;;;;;;20.50;70.90;;;;;;5005215;28;1475;-66
2023/10/07 02:09:26;;;;;;;;;;;20.50;70.90;;;;;;5024006;28;1301;-65
2023/10/07 02:12:00;;;;;;;;;;;20.50;70.90;;;;;;5022419;28;1257;-65
2023/10/07 02:14:27;;;;;;;;;;;20.50;70.90;;;;;;5003672;28;1374;-65
2023/10/07 02:16:53;;;;;;;;;;;20.50;70.90;;;;;;5023050;28;1329;-65
2023/10/07 02:19:29;;;;;;;;;;;20.50;71.00;;;;;;5004458;28;1476;-65
2023/10/07 02:22:07;;;;;;;;;;;20.50;70.90;;;;;;5021773;28;1906;-66
2023/10/07 02:24:33;;;;;;;;;;;20.50;70.90;;;;;;5020842;28;1557;-66
2023/10/07 02:27:17;;;;;;;;;;;20.50;71.00;;;;;;5003357;28;1392;-66
2023/10/07 02:29:43;;;;;;;;;;;20.40;70.90;;;;;;5019109;28;1693;-65
2023/10/07 02:32:14;;;;;;;;;;;20.50;71.00;;;;;;5005972;28;967;-65
2023/10/07 02:34:51;;;;;;;;;;;20.50;71.00;;;;;;5005058;28;1512;-66
2023/10/07 02:37:21;;;;;;;;;;;20.50;71.00;;;;;;5017571;28;1403;-65
2023/10/07 02:39:47;;;;;;;;;;;20.50;71.00;;;;;;5017720;28;1902;-66
2023/10/07 02:42:21;;;;;;;;;;;20.50;71.00;;;;;;5019707;28;1506;-65
2023/10/07 02:45:50;;;;;;;;;;;20.50;71.00;;;;;;4997473;28;1443;-66
2023/10/07 02:47:51;;;;;;;;;;;20.50;71.00;;;;;;5009334;28;1260;-66
2023/10/07 02:50:19;;;;;;;;;;;20.50;71.00;;;;;;5017987;28;1405;-65
2023/10/07 02:52:49;;;;;;;;;;;20.50;71.00;;;;;;5001997;28;1201;-65
2023/10/07 02:57:46;;;;;;;;;;;20.50;71.00;;;;;;5020822;28;1318;-66
2023/10/07 03:00:29;;;;;;;;;;;20.50;71.00;;;;;;5002076;28;1895;-65
2023/10/07 03:05:44;;;;;;;;;;;20.50;71.00;;;;;;5005932;28;1235;-66
2023/10/07 03:08:19;;;;;;;;;;;20.40;71.00;;;;;;5020944;28;1716;-65
2023/10/07 03:11:03;;;;;;;;;;;20.50;71.10;;;;;;5004625;28;1319;-66
2023/10/07 03:13:29;;;;;;;;;;;20.50;71.10;;;;;;5012145;28;1373;-65
2023/10/07 03:16:10;;;;;;;;;;;20.50;71.00;;;;;;5021519;28;1613;-65
2023/10/07 03:18:38;;;;;;;;;;;20.50;71.00;;;;;;5020209;28;1381;-66
2023/10/07 03:21:10;;;;;;;;;;;20.50;71.10;;;;;;5007604;28;1915;-66
2023/10/07 03:23:45;;;;;;;;;;;20.50;71.10;;;;;;5023495;28;1237;-66
2023/10/07 03:26:17;;;;;;;;;;;20.50;71.10;;;;;;5022531;28;914;-65
2023/10/07 03:28:53;;;;;;;;;;;20.40;71.00;;;;;;4993975;28;1318;-66
2023/10/07 03:31:39;;;;;;;;;;;20.50;71.10;;;;;;5074799;23;2052;-63
2023/10/07 03:34:08;;;;;;;;;;;20.50;71.10;;;;;;5047147;28;1239;-63
2023/10/07 03:41:52;;;;;;;;;;;20.50;71.20;;;;;;5049082;28;1962;-63
2023/10/07 03:44:17;;;;;;;;;;;20.50;71.20;;;;;;5049321;28;1100;-63
2023/10/07 03:46:43;;;;;;;;;;;20.50;71.10;;;;;;5047127;28;1287;-63
2023/10/07 03:49:10;;;;;;;;;;;20.50;71.10;;;;;;5049184;28;1242;-64
2023/10/07 03:51:35;;;;;;;;;;;20.50;71.10;;;;;;5049814;28;1358;-64
2023/10/07 03:54:09;;;;;;;;;;;20.50;71.10;;;;;;5050114;28;1488;-63
2023/10/07 03:56:35;;;;;;;;;;;20.50;71.20;;;;;;5048690;28;1485;-63
2023/10/07 03:59:01;;;;;;;;;;;20.50;71.10;;;;;;5049122;28;1227;-62
2023/10/07 04:01:27;;;;;;;;;;;20.50;71.20;;;;;;5049740;28;2013;-63
2023/10/07 04:03:59;;;;;;;;;;;20.50;71.20;;;;;;5048343;28;1231;-63
2023/10/07 04:06:30;;;;;;;;;;;20.50;71.20;;;;;;5049295;28;1298;-64
2023/10/07 04:08:58;;;;;;;;;;;20.50;71.10;;;;;;5049055;28;1228;-63
2023/10/07 04:11:28;;;;;;;;;;;20.50;71.20;;;;;;5049940;28;1366;-63
2023/10/07 04:13:55;;;;;;;;;;;20.50;71.20;;;;;;5049168;28;1001;-63
2023/10/07 04:16:24;;;;;;;;;;;20.50;71.20;;;;;;5049710;28;879;-63
2023/10/07 04:18:53;;;;;;;;;;;20.50;71.20;;;;;;5049281;28;1214;-64
2023/10/07 04:21:20;;;;;;;;;;;20.50;71.20;;;;;;5046435;28;1898;-63
2023/10/07 04:23:46;;;;;;;;;;;20.50;71.20;;;;;;5047017;28;998;-64
2023/10/07 04:26:19;;;;;;;;;;;20.50;71.20;;;;;;5048392;28;894;-64
2023/10/07 04:28:53;;;;;;;;;;;20.50;71.20;;;;;;5048881;28;1309;-63
2023/10/07 04:31:29;;;;;;;;;;;20.50;71.20;;;;;;5049478;28;1496;-63
2023/10/07 04:33:54;;;;;;;;;;;20.40;71.20;;;;;;5047948;28;1251;-63
2023/10/07 04:37:08;;;;;;;;;;;20.50;71.30;;;;;;5049300;28;1070;-63
2023/10/07 04:39:27;;;;;;;;;;;20.50;71.20;;;;;;5048557;28;1556;-63
2023/10/07 04:41:57;;;;;;;;;;;20.50;71.20;;;;;;5048391;28;1967;-63
2023/10/07 04:44:27;;;;;;;;;;;20.50;71.20;;;;;;5048079;28;1252;-63
2023/10/07 04:47:20;;;;;;;;;;;20.50;71.20;;;;;;5037583;28;1774;-64
2023/10/07 04:49:55;;;;;;;;;;;20.50;71.30;;;;;;5046577;28;2223;-64
2023/10/07 04:52:24;;;;;;;;;;;20.50;71.30;;;;;;5048814;28;1104;-64
2023/10/07 04:54:52;;;;;;;;;;;20.50;71.20;;;;;;5048823;28;1195;-64
2023/10/07 04:57:39;;;;;;;;;;;20.50;71.20;;;;;;5048294;28;1270;-64
2023/10/07 05:00:08;;;;;;;;;;;20.50;71.20;;;;;;5050719;28;1914;-64
2023/10/07 05:02:34;;;;;;;;;;;20.50;71.30;;;;;;5052793;28;1413;-64
2023/10/07 05:05:00;;;;;;;;;;;20.50;71.20;;;;;;5052863;28;1501;-65
2023/10/07 05:07:26;;;;;;;;;;;20.40;71.20;;;;;;5052992;28;1302;-63
2023/10/07 05:09:52;;;;;;;;;;;20.50;71.30;;;;;;5052511;28;1283;-64
2023/10/07 05:12:19;;;;;;;;;;;20.50;71.30;;;;;;5052301;28;1266;-62
2023/10/07 05:14:45;;;;;;;;;;;20.50;71.30;;;;;;5051881;28;1233;-63
2023/10/07 05:17:11;;;;;;;;;;;20.50;71.30;;;;;;5067126;28;1370;-63
2023/10/07 05:19:37;;;;;;;;;;;20.50;71.30;;;;;;5052336;28;1457;-64
2023/10/07 05:22:14;;;;;;;;;;;20.50;71.30;;;;;;5051316;28;1973;-64
2023/10/07 05:24:41;;;;;;;;;;;20.40;71.20;;;;;;5050393;28;1336;-64
2023/10/07 05:27:06;;;;;;;;;;;20.50;71.30;;;;;;5051074;28;1448;-64
2023/10/07 05:29:32;;;;;;;;;;;20.40;71.20;;;;;;5052589;28;1291;-65
2023/10/07 05:31:57;;;;;;;;;;;20.40;71.30;;;;;;5051974;28;1192;-64
2023/10/07 05:34:28;;;;;;;;;;;20.50;71.30;;;;;;5051505;28;1362;-65
2023/10/07 05:37:01;;;;;;;;;;;20.50;71.30;;;;;;5049222;28;1209;-64
2023/10/07 05:39:27;;;;;;;;;;;20.50;71.40;;;;;;5051218;28;1397;-62
2023/10/07 05:41:52;;;;;;;;;;;20.40;71.30;;;;;;5051622;28;1902;-61
2023/10/07 05:44:17;;;;;;;;;;;20.50;71.40;;;;;;5052005;28;1232;-61
2023/10/07 05:46:43;;;;;;;;;;;20.50;71.40;;;;;;5051656;28;1463;-63
2023/10/07 05:49:10;;;;;;;;;;;20.50;71.30;;;;;;5052521;28;1326;-62
2023/10/07 05:51:36;;;;;;;;;;;20.50;71.30;;;;;;5052147;28;1271;-63
2023/10/07 05:54:03;;;;;;;;;;;20.50;71.40;;;;;;5050862;28;1524;-65
2023/10/07 05:56:29;;;;;;;;;;;20.50;71.30;;;;;;5050367;28;1149;-63
2023/10/07 05:58:54;;;;;;;;;;;20.50;71.30;;;;;;5050840;28;1280;-64
2023/10/07 06:01:20;;;;;;;;;;;20.50;71.40;;;;;;5051265;28;1915;-64
2023/10/07 06:03:46;;;;;;;;;;;20.50;71.40;;;;;;5051522;28;1261;-64
2023/10/07 06:06:14;;;;;;;;;;;20.50;71.40;;;;;;5051717;28;1121;-61
2023/10/07 06:08:40;;;;;;;;;;;20.40;71.40;;;;;;5051911;28;1571;-64
2023/10/07 06:11:07;;;;;;;;;;;20.40;71.40;;;;;;5049856;28;1361;-64
2023/10/07 06:13:33;;;;;;;;;;;20.50;71.40;;;;;;5050406;28;1551;-64
2023/10/07 06:15:59;;;;;;;;;;;20.50;71.40;;;;;;5051794;28;1458;-65
2023/10/07 06:18:25;;;;;;;;;;;20.50;70.90;;;;;;5051735;28;1122;-64
2023/10/07 06:20:51;;;;;;;;;;;20.50;71.00;;;;;;5050537;28;1907;-64
2023/10/07 06:23:18;;;;;;;;;;;20.50;70.80;;;;;;5050674;28;1359;-62
2023/10/07 06:25:50;;;;;;;;;;;20.50;70.40;;;;;;5050394;28;1227;-62
2023/10/07 06:31:10;;;;;;;;;;;20.50;70.30;;;;;;5048745;28;1353;-62
2023/10/07 06:33:42;;;;;;;;;;;20.50;70.30;;;;;;5050883;28;1240;-62
2023/10/07 06:36:10;;;;;;;;;;;20.50;70.20;;;;;;5051516;28;1445;-64
2023/10/07 06:38:37;;;;;;;;;;;20.50;70.20;;;;;;5049996;28;1484;-64
2023/10/07 06:41:12;;;;;;;;;;;20.50;70.10;;;;;;5049159;28;1911;-64
2023/10/07 06:43:47;;;;;;;;;;;20.50;70.00;;;;;;5050654;28;1307;-63
2023/10/07 06:46:13;;;;;;;;;;;20.50;70.00;;;;;;5050398;28;1243;-64
2023/10/07 06:48:38;;;;;;;;;;;20.50;70.10;;;;;;5047080;28;1938;-65
2023/10/07 06:51:06;;;;;;;;;;;20.50;70.10;;;;;;5049992;28;1308;-65
2023/10/07 06:53:31;;;;;;;;;;;20.50;70.10;;;;;;5051147;28;954;-63
2023/10/07 06:56:01;;;;;;;;;;;20.50;70.10;;;;;;5049096;28;1167;-64
2023/10/07 06:58:27;;;;;;;;;;;20.50;70.10;;;;;;5049753;28;980;-63
2023/10/07 07:01:22;;;;;;;;;;;20.50;70.00;;;;;;5049763;28;1902;-64
2023/10/07 07:03:47;;;;;;;;;;;20.50;70.00;;;;;;5048233;28;1289;-65
2023/10/07 07:06:26;;;;;;;;;;;20.50;70.00;;;;;;5050435;28;1298;-63
2023/10/07 07:08:52;;;;;;;;;;;20.50;70.00;;;;;;5049170;28;1795;-63
2023/10/07 07:11:17;;;;;;;;;;;20.50;70.10;;;;;;5047949;28;1856;-63
2023/10/07 07:13:44;;;;;;;;;;;20.50;70.10;;;;;;5049511;28;2481;-63
2023/10/07 07:16:13;;;;;;;;;;;20.50;70.10;;;;;;5049962;28;1831;-63
2023/10/07 07:18:40;;;;;;;;;;;20.50;70.30;;;;;;5045030;28;1842;-64
2023/10/07 07:23:45;;;;;;;;;;;20.50;71.10;;;;;;5048891;28;1465;-64
2023/10/07 07:26:11;;;;;;;;;;;20.60;71.20;;;;;;5049227;28;1902;-64
2023/10/07 07:28:42;;;;;;;;;;;20.70;71.40;;;;;;5047345;28;1248;-64
2023/10/07 07:31:11;;;;;;;;;;;20.70;71.50;;;;;;5048078;28;1893;-64
2023/10/07 07:33:37;;;;;;;;;;;20.70;71.50;;;;;;5049080;28;1301;-63
2023/10/07 07:36:18;;;;;;;;;;;20.70;71.60;;;;;;5047857;28;1675;-64
2023/10/07 07:38:47;;;;;;;;;;;20.70;71.60;;;;;;5046368;28;1430;-64
2023/10/07 07:41:34;;;;;;;;;;;20.80;71.80;;;;;;5048014;28;1906;-64
2023/10/07 07:43:59;;;;;;;;;;;20.80;71.60;;;;;;5049535;28;1368;-64
2023/10/07 07:46:51;;;;;;;;;;;20.80;71.40;;;;;;5050323;28;1559;-64
2023/10/07 07:49:17;;;;;;;;;;;20.80;71.30;;;;;;5047383;28;1299;-64
2023/10/07 07:51:44;;;;;;;;;;;20.80;71.30;;;;;;5048502;28;1239;-64
2023/10/07 07:54:09;;;;;;;;;;;20.80;71.30;;;;;;5050356;28;1275;-64
2023/10/07 07:56:35;;;;;;;;;;;20.80;71.30;;;;;;5050047;28;1113;-64
2023/10/07 07:59:17;;;;;;;;;;;20.80;71.30;;;;;;5050153;28;1271;-64
2023/10/07 08:01:51;;;;;;;;;;;20.80;71.40;;;;;;5048264;28;1961;-64
2023/10/07 08:04:17;;;;;;;;;;;20.80;71.70;;;;;;5049620;28;1907;-64
2023/10/07 08:06:47;;;;;;;;;;;20.80;71.70;;;;;;5048047;28;1903;-64
2023/10/07 08:09:12;;;;;;;;;;;20.80;71.60;;;;;;5049322;28;1484;-64
2023/10/07 08:11:38;;;;;;;;;;;20.90;71.70;;;;;;5049535;28;1511;-64
2023/10/07 08:14:09;;;;;;;;;;;20.90;71.80;;;;;;5048106;28;1553;-64
2023/10/07 08:16:46;;;;;;;;;;;20.90;71.80;;;;;;5049347;28;1622;-64
2023/10/07 08:19:13;;;;;;;;;;;20.90;71.80;;;;;;5047855;28;1243;-63
2023/10/07 08:21:39;;;;;;;;;;;20.90;71.80;;;;;;5047787;28;2189;-63
2023/10/07 08:24:06;;;;;;;;;;;20.90;71.90;;;;;;5048015;28;1574;-63
2023/10/07 08:26:34;;;;;;;;;;;20.90;71.90;;;;;;5048162;28;1567;-63
2023/10/07 08:29:00;;;;;;;;;;;20.90;72.40;;;;;;5046668;28;1334;-63
2023/10/07 08:31:37;;;;;;;;;;;20.90;72.70;;;;;;5048620;28;1387;-63
2023/10/07 08:36:32;;;;;;;;;;;21.00;72.50;;;;;;5053328;28;1503;-63
2023/10/07 08:39:04;;;;;;;;;;;21.00;72.40;;;;;;5051988;28;1512;-63
2023/10/07 08:41:31;;;;;;;;;;;21.00;72.40;;;;;;5053713;28;1977;-63
2023/10/07 08:44:13;;;;;;;;;;;21.00;72.20;;;;;;5051362;28;1374;-63
2023/10/07 08:46:48;;;;;;;;;;;21.00;72.20;;;;;;5053485;28;1363;-63
2023/10/07 08:49:15;;;;;;;;;;;21.00;72.40;;;;;;5046820;28;1382;-63
2023/10/07 08:51:44;;;;;;;;;;;21.00;72.40;;;;;;5051340;28;1468;-63
2023/10/07 08:54:25;;;;;;;;;;;21.00;72.40;;;;;;5050426;28;1343;-63
2023/10/07 08:56:54;;;;;;;;;;;21.00;72.40;;;;;;5050696;28;1400;-63
2023/10/07 08:59:30;;;;;;;;;;;21.00;72.50;;;;;;5051463;28;1366;-64
2023/10/07 09:02:00;;;;;;;;;;;21.00;72.40;;;;;;5051953;28;1906;-63
2023/10/07 09:04:25;;;;;;;;;;;21.00;72.40;;;;;;5051419;28;1269;-63
2023/10/07 09:06:51;;;;;;;;;;;21.00;73.00;;;;;;5050443;28;1446;-64
2023/10/07 09:09:37;;;;;;;;;;;21.00;73.00;;;;;;5051371;28;1292;-63
2023/10/07 09:12:10;;;;;;;;;;;21.10;72.90;;;;;;5051364;28;1407;-63
2023/10/07 09:14:40;;;;;;;;;;;21.10;72.70;;;;;;5051920;28;1268;-64
2023/10/07 09:17:09;;;;;;;;;;;21.10;72.70;;;;;;5051032;28;1336;-63
2023/10/07 09:19:35;;;;;;;;;;;21.00;72.50;;;;;;5010655;28;4648;-64
2023/10/07 09:22:10;;;;;;;;;;;21.10;72.50;;;;;;5051814;28;1910;-64
2023/10/07 09:24:41;;;;;;;;;;;21.10;72.70;;;;;;5052273;28;1314;-64
2023/10/07 09:27:10;;;;;;;;;;;21.10;72.60;;;;;;5050658;28;1353;-63
2023/10/07 09:29:37;;;;;;;;;;;21.10;72.60;;;;;;5051353;28;1264;-64
2023/10/07 09:32:07;;;;;;;;;;;21.10;72.50;;;;;;5050660;28;1281;-64
2023/10/07 09:34:44;;;;;;;;;;;21.10;72.50;;;;;;5051235;28;1353;-64
2023/10/07 09:37:13;;;;;;;;;;;21.10;72.80;;;;;;5050976;28;1444;-63
2023/10/07 09:39:44;;;;;;;;;;;21.10;72.80;;;;;;5040150;22;2238;-67
2023/10/07 09:45:27;;;;;;;;;;;21.10;72.80;;;;;;5010331;28;1347;-66
2023/10/07 09:47:49;;;;;;;;;;;21.10;72.70;;;;;;5011094;28;1494;-67
2023/10/07 09:52:52;;;;;;;;;;;21.10;72.70;;;;;;5005981;28;1243;-68
2023/10/07 09:55:47;;;;;;;;;;;21.10;73.10;;;;;;5011415;28;1485;-67
2023/10/07 09:58:26;;;;;;;;;;;21.10;73.00;;;;;;4963517;28;1212;-67
2023/10/07 10:01:06;;;;;;;;;;;21.10;73.10;;;;;;5010855;28;1952;-67
2023/10/07 10:03:42;;;;;;;;;;;21.10;73.00;;;;;;5011399;28;1336;-68
2023/10/07 10:06:25;;;;;;;;;;;21.10;73.40;;;;;;4994391;28;1724;-66
2023/10/07 10:08:57;;;;;;;;;;;21.10;73.40;;;;;;5011646;28;1331;-67
2023/10/07 10:16:44;;;;;;;;;;;21.10;73.30;;;;;;5011923;28;1576;-67
2023/10/07 10:19:21;;;;;;;;;;;21.20;73.30;;;;;;5011784;28;1532;-67
2023/10/07 10:21:47;;;;;;;;;;;21.10;73.20;;;;;;5012090;28;1961;-67
2023/10/07 10:24:14;;;;;;;;;;;21.20;73.30;;;;;;5012087;28;1785;-67
2023/10/07 10:26:40;;;;;;;;;;;21.20;73.20;;;;;;5012107;28;1476;-68
2023/10/07 10:29:15;;;;;;;;;;;21.20;73.30;;;;;;5011845;28;1581;-67
2023/10/07 10:31:48;;;;;;;;;;;21.20;73.10;;;;;;5011759;28;1512;-67
2023/10/07 10:34:14;;;;;;;;;;;21.20;73.10;;;;;;5010738;28;1520;-67
2023/10/07 10:36:43;;;;;;;;;;;21.20;73.10;;;;;;5011940;28;1549;-67
2023/10/07 10:39:25;;;;;;;;;;;21.20;73.10;;;;;;5009825;28;1450;-67
2023/10/07 10:41:54;;;;;;;;;;;21.20;73.90;;;;;;5011521;28;1946;-67
2023/10/07 10:44:20;;;;;;;;;;;21.20;73.10;;;;;;5010363;28;1625;-68
2023/10/07 10:46:49;;;;;;;;;;;21.20;73.10;;;;;;5011563;28;1440;-68
2023/10/07 10:49:16;;;;;;;;;;;21.20;73.10;;;;;;5009830;28;1447;-68
2023/10/07 10:51:48;;;;;;;;;;;21.20;73.10;;;;;;5008222;28;1372;-67
2023/10/07 10:54:17;;;;;;;;;;;21.20;73.10;;;;;;5005258;28;1642;-67
2023/10/07 10:56:47;;;;;;;;;;;21.20;73.10;;;;;;4991117;28;1664;-67
2023/10/07 10:59:14;;;;;;;;;;;21.20;73.20;;;;;;5011099;28;1351;-67
2023/10/07 11:01:43;;;;;;;;;;;21.20;73.20;;;;;;5011340;28;1914;-67
2023/10/07 11:04:12;;;;;;;;;;;21.20;73.20;;;;;;5011123;28;1671;-68
2023/10/07 11:06:38;;;;;;;;;;;21.20;73.30;;;;;;4995711;28;4129;-67
2023/10/07 11:09:04;;;;;;;;;;;21.20;73.40;;;;;;5006669;28;1562;-66
2023/10/07 11:11:29;;;;;;;;;;;21.20;73.40;;;;;;5003959;28;4070;-67
2023/10/07 11:13:56;;;;;;;;;;;21.20;73.80;;;;;;5010876;28;1397;-67
2023/10/07 11:16:22;;;;;;;;;;;21.20;74.40;;;;;;5011670;28;1387;-68
2023/10/07 11:18:49;;;;;;;;;;;21.20;74.50;;;;;;5008516;28;1697;-67
2023/10/07 11:21:19;;;;;;;;;;;21.30;74.50;;;;;;5009824;28;1942;-67
2023/10/07 11:23:45;;;;;;;;;;;21.30;74.50;;;;;;5004922;28;1332;-67
2023/10/07 11:26:11;;;;;;;;;;;21.30;74.60;;;;;;5011026;28;1676;-67
2023/10/07 11:28:38;;;;;;;;;;;21.30;74.50;;;;;;5009815;28;1924;-71
2023/10/07 11:31:06;;;;;;;;;;;21.30;74.40;;;;;;5007549;28;1286;-70
2023/10/07 11:33:34;;;;;;;;;;;21.30;74.20;;;;;;5008864;28;2097;-70
2023/10/07 11:35:59;;;;;;;;;;;21.30;73.90;;;;;;5009365;28;1188;-69
2023/10/07 11:38:25;;;;;;;;;;;21.30;73.80;;;;;;5009226;28;1485;-71
2023/10/07 11:40:51;;;;;;;;;;;21.30;73.70;;;;;;4995077;28;4381;-69
2023/10/07 11:43:16;;;;;;;;;;;21.30;74.10;;;;;;5000594;28;4309;-70
2023/10/07 11:45:43;;;;;;;;;;;21.30;74.30;;;;;;4997859;28;4444;-69
2023/10/07 11:48:09;;;;;;;;;;;21.30;74.20;;;;;;4991203;28;4578;-69
2023/10/07 11:50:38;;;;;;;;;;;21.30;74.80;;;;;;5001420;28;4448;-69
2023/10/07 11:53:04;;;;;;;;;;;21.30;74.10;;;;;;5007839;28;4564;-71
2023/10/07 11:55:32;;;;;;;;;;;21.30;74.10;;;;;;5010211;28;1343;-70
2023/10/07 11:57:58;;;;;;;;;;;21.30;74.10;;;;;;5010277;28;1149;-72
2023/10/07 12:00:28;;;;;;;;;;;21.30;74.00;;;;;;4999013;28;4412;-69
2023/10/07 12:02:57;;;;;;;;;;;21.30;74.20;;;;;;4988257;28;4803;-68
2023/10/07 12:05:29;;;;;;;;;;;21.30;74.60;;;;;;5001507;28;4351;-69
2023/10/07 12:07:59;;;;;;;;;;;21.30;73.50;;;;;;5007665;28;1361;-68
2023/10/07 12:10:25;;;;;;;;;;;21.20;72.80;;;;;;5001875;28;5419;-67
2023/10/07 12:12:52;;;;;;;;;;;21.20;72.40;;;;;;4990384;28;4435;-68
2023/10/07 12:15:17;;;;;;;;;;;21.20;72.30;;;;;;5003658;28;4896;-68
2023/10/07 12:17:44;;;;;;;;;;;21.10;72.10;;;;;;5010206;28;1396;-68
2023/10/07 12:20:20;;;;;;;;;;;21.10;72.10;;;;;;4998616;28;4643;-68
2023/10/07 12:22:46;;;;;;;;;;;21.00;71.90;;;;;;4997911;28;4183;-67
2023/10/07 12:25:18;;;;;;;;;;;21.00;71.90;;;;;;5008498;28;1474;-67
2023/10/07 12:27:51;;;;;;;;;;;21.00;72.00;;;;;;5009282;28;1137;-68
2023/10/07 12:30:22;;;;;;;;;;;20.90;72.00;;;;;;5003768;28;1296;-67
2023/10/07 12:32:48;;;;;;;;;;;20.90;72.00;;;;;;5008660;28;2175;-68
2023/10/07 12:35:15;;;;;;;;;;;20.90;72.10;;;;;;5009544;28;1216;-68
2023/10/07 12:37:41;;;;;;;;;;;20.90;72.30;;;;;;5005561;28;1940;-68
2023/10/07 12:40:13;;;;;;;;;;;20.90;72.30;;;;;;5007879;28;1980;-68
2023/10/07 12:42:39;;;;;;;;;;;20.90;72.80;;;;;;5016517;28;1403;-69
2023/10/07 12:45:05;;;;;;;;;;;20.90;72.50;;;;;;5005150;28;1561;-68
2023/10/07 12:47:31;;;;;;;;;;;20.90;72.20;;;;;;5009693;28;1332;-68
2023/10/07 12:49:56;;;;;;;;;;;20.90;72.20;;;;;;5008015;28;1412;-67
2023/10/07 12:52:24;;;;;;;;;;;20.90;72.30;;;;;;5009783;28;1260;-68
2023/10/07 12:54:50;;;;;;;;;;;20.90;72.20;;;;;;5009700;28;1363;-68
2023/10/07 12:57:16;;;;;;;;;;;20.80;72.10;;;;;;5009821;28;943;-68
2023/10/07 12:59:42;;;;;;;;;;;20.80;72.10;;;;;;5009461;28;1342;-68
2023/10/07 13:02:09;;;;;;;;;;;20.80;72.20;;;;;;5009449;28;1902;-68
2023/10/07 13:04:35;;;;;;;;;;;20.80;72.10;;;;;;5008188;28;1971;-68
2023/10/07 13:07:03;;;;;;;;;;;20.80;72.10;;;;;;5008067;28;1222;-68
2023/10/07 13:09:31;;;;;;;;;;;20.80;72.20;;;;;;5008448;28;1485;-68
2023/10/07 13:11:58;;;;;;;;;;;20.80;72.20;;;;;;5008433;28;1071;-67
2023/10/07 13:14:26;;;;;;;;;;;20.80;72.10;;;;;;5008553;28;1080;-67
2023/10/07 13:16:58;;;;;;;;;;;20.80;72.10;;;;;;5009620;28;1221;-67
2023/10/07 13:19:26;;;;;;;;;;;20.80;72.20;;;;;;5008707;28;1448;-67
2023/10/07 13:22:01;;;;;;;;;;;20.80;72.20;;;;;;5011121;28;1977;-67
2023/10/07 13:24:27;;;;;;;;;;;20.80;72.30;;;;;;5013154;28;1331;-67
2023/10/07 13:26:52;;;;;;;;;;;20.80;72.20;;;;;;4990789;28;4533;-67
2023/10/07 13:29:18;;;;;;;;;;;20.70;72.20;;;;;;5004908;28;4598;-67
2023/10/07 13:31:43;;;;;;;;;;;20.70;72.10;;;;;;4997820;28;4106;-68
2023/10/07 13:34:10;;;;;;;;;;;20.70;72.20;;;;;;5002500;28;3800;-68
2023/10/07 13:36:41;;;;;;;;;;;20.70;72.30;;;;;;5002871;28;4288;-67
2023/10/07 13:39:15;;;;;;;;;;;20.80;72.30;;;;;;5011111;28;1432;-67
2023/10/07 13:41:43;;;;;;;;;;;20.80;72.40;;;;;;5012794;28;1968;-67
2023/10/07 13:44:09;;;;;;;;;;;20.80;72.40;;;;;;5012261;28;1826;-67
2023/10/07 13:46:35;;;;;;;;;;;20.70;72.20;;;;;;5012915;28;1368;-67
2023/10/07 13:49:02;;;;;;;;;;;20.70;72.20;;;;;;5012375;28;1439;-69
2023/10/07 13:51:31;;;;;;;;;;;20.70;72.20;;;;;;5012946;28;1529;-66
2023/10/07 13:56:53;;;;;;;;;;;20.70;72.10;;;;;;5011972;28;1362;-66
2023/10/07 13:59:18;;;;;;;;;;;20.70;72.30;;;;;;5011753;28;1385;-67
2023/10/07 14:01:46;;;;;;;;;;;20.70;72.50;;;;;;5006567;28;1961;-68
2023/10/07 14:04:15;;;;;;;;;;;20.70;72.50;;;;;;5006064;28;1976;-68
2023/10/07 14:06:43;;;;;;;;;;;20.70;72.50;;;;;;5012242;28;1023;-68
2023/10/07 14:09:16;;;;;;;;;;;20.70;72.50;;;;;;5012051;28;1387;-68
2023/10/07 14:11:48;;;;;;;;;;;20.70;72.70;;;;;;5011276;28;1324;-69
2023/10/07 14:14:13;;;;;;;;;;;20.70;72.70;;;;;;5012426;28;1452;-67
2023/10/07 14:16:40;;;;;;;;;;;20.70;72.70;;;;;;5012436;28;1581;-67
2023/10/07 14:19:06;;;;;;;;;;;20.70;72.80;;;;;;5008359;28;2165;-69
2023/10/07 14:21:32;;;;;;;;;;;20.70;72.80;;;;;;5012256;28;1961;-69
2023/10/07 14:24:03;;;;;;;;;;;20.70;72.80;;;;;;5012005;28;1522;-68
2023/10/07 14:26:32;;;;;;;;;;;20.70;72.90;;;;;;5012217;28;1312;-68
2023/10/07 14:29:01;;;;;;;;;;;20.70;72.90;;;;;;5000636;28;1392;-68
2023/10/07 14:31:27;;;;;;;;;;;20.70;72.90;;;;;;5007895;28;1335;-67
2023/10/07 14:33:54;;;;;;;;;;;20.70;72.90;;;;;;5012097;28;1387;-68
2023/10/07 14:36:21;;;;;;;;;;;20.70;72.90;;;;;;5012678;28;1331;-68
2023/10/07 14:38:48;;;;;;;;;;;20.70;73.00;;;;;;5010087;28;1364;-69
2023/10/07 14:41:14;;;;;;;;;;;20.70;73.00;;;;;;5012484;28;1917;-68
2023/10/07 14:43:39;;;;;;;;;;;20.70;73.00;;;;;;5012796;28;1256;-67
2023/10/07 14:46:11;;;;;;;;;;;20.70;73.00;;;;;;5012754;28;1140;-68
2023/10/07 14:48:39;;;;;;;;;;;20.70;73.00;;;;;;5007141;28;1453;-69
2023/10/07 14:51:05;;;;;;;;;;;20.70;73.00;;;;;;5009382;28;2050;-68
2023/10/07 14:53:33;;;;;;;;;;;20.70;73.00;;;;;;5011128;28;1414;-70
2023/10/07 14:55:59;;;;;;;;;;;20.70;73.00;;;;;;5008945;28;1437;-70
2023/10/07 14:58:29;;;;;;;;;;;20.70;73.00;;;;;;5005554;28;1470;-70
2023/10/07 15:00:55;;;;;;;;;;;20.70;73.00;;;;;;5011565;28;1960;-70
2023/10/07 15:03:21;;;;;;;;;;;20.70;73.00;;;;;;5011351;28;1356;-71
2023/10/07 15:05:48;;;;;;;;;;;20.70;73.00;;;;;;5011379;28;1094;-71
2023/10/07 15:08:16;;;;;;;;;;;20.70;73.00;;;;;;5011086;28;1220;-70
2023/10/07 15:10:42;;;;;;;;;;;20.70;73.00;;;;;;5011832;28;1308;-70
2023/10/07 15:13:08;;;;;;;;;;;20.70;73.00;;;;;;5009064;28;1149;-70
2023/10/07 15:15:35;;;;;;;;;;;20.70;73.00;;;;;;5011736;28;1372;-70
2023/10/07 15:18:01;;;;;;;;;;;20.70;73.00;;;;;;5009875;28;1393;-69
2023/10/07 15:20:26;;;;;;;;;;;20.60;72.90;;;;;;5010499;28;1910;-70
2023/10/07 15:22:52;;;;;;;;;;;20.70;73.00;;;;;;5011188;28;1254;-69
2023/10/07 15:25:17;;;;;;;;;;;20.70;73.10;;;;;;5010888;28;1253;-69
2023/10/07 15:27:43;;;;;;;;;;;20.60;72.90;;;;;;5011570;28;1095;-70